sensor_id;sensor_type;location;lat;lon;timestamp;temperature;humidity
37285;DHT22;23172;53.550;9.964;2022-11-20T00:04:38;7.00;76.70
37285;DHT22;23172;53.550;9.964;2022-11-20T00:09:40;6.90;76.60
37285;DHT22;23172;53.550;9.964;2022-11-20T00:14:43;6.90;76.70
37285;DHT22;23172;53.550;9.964;2022-11-20T00:19:45;6.90;77.30
37285;DHT22;23172;53.550;9.964;2022-11-20T00:24:47;6.90;77.50
37285;DHT22;23172;53.550;9.964;2022-11-20T00:29:50;7.10;77.40
37285;DHT22;23172;53.550;9.964;2022-11-20T00:34:52;7.10;77.30
37285;DHT22;23172;53.550;9.964;2022-11-20T00:39:54;7.00;77.50
37285;DHT22;23172;53.550;9.964;2022-11-20T00:44:57;7.00;77.80
37285;DHT22;23172;53.550;9.964;2022-11-20T00:49:59;6.90;78.20
37285;DHT22;23172;53.550;9.964;2022-11-20T00:55:01;7.00;78.40
37285;DHT22;23172;53.550;9.964;2022-11-20T01:00:06;7.00;78.60
37285;DHT22;23172;53.550;9.964;2022-11-20T01:05:08;6.90;78.90
37285;DHT22;23172;53.550;9.964;2022-11-20T01:10:10;7.00;79.30
37285;DHT22;23172;53.550;9.964;2022-11-20T01:15:13;6.90;79.40
37285;DHT22;23172;53.550;9.964;2022-11-20T01:20:15;6.90;80.30
37285;DHT22;23172;53.550;9.964;2022-11-20T01:25:17;6.90;79.80
37285;DHT22;23172;53.550;9.964;2022-11-20T01:30:20;6.90;80.30
37285;DHT22;23172;53.550;9.964;2022-11-20T01:35:22;6.90;80.40
37285;DHT22;23172;53.550;9.964;2022-11-20T01:40:24;6.80;80.60
37285;DHT22;23172;53.550;9.964;2022-11-20T01:46:03;6.80;81.00
37285;DHT22;23172;53.550;9.964;2022-11-20T01:51:10;6.90;81.50
37285;DHT22;23172;53.550;9.964;2022-11-20T01:56:15;6.90;81.70
37285;DHT22;23172;53.550;9.964;2022-11-20T02:01:18;7.00;81.70
37285;DHT22;23172;53.550;9.964;2022-11-20T02:06:24;7.00;82.10
37285;DHT22;23172;53.550;9.964;2022-11-20T02:11:27;6.90;83.10
37285;DHT22;23172;53.550;9.964;2022-11-20T02:16:37;6.80;82.60
37285;DHT22;23172;53.550;9.964;2022-11-20T02:21:43;6.70;83.10
37285;DHT22;23172;53.550;9.964;2022-11-20T02:26:52;6.70;83.50
37285;DHT22;23172;53.550;9.964;2022-11-20T02:31:55;6.70;83.90
37285;DHT22;23172;53.550;9.964;2022-11-20T02:36:59;6.70;84.20
37285;DHT22;23172;53.550;9.964;2022-11-20T02:42:02;6.70;83.70
37285;DHT22;23172;53.550;9.964;2022-11-20T02:47:04;6.70;83.50
37285;DHT22;23172;53.550;9.964;2022-11-20T02:52:06;6.70;83.50
37285;DHT22;23172;53.550;9.964;2022-11-20T02:57:10;6.70;83.40
37285;DHT22;23172;53.550;9.964;2022-11-20T03:02:11;6.80;83.60
37285;DHT22;23172;53.550;9.964;2022-11-20T03:07:13;6.80;83.60
37285;DHT22;23172;53.550;9.964;2022-11-20T03:12:17;6.80;83.50
37285;DHT22;23172;53.550;9.964;2022-11-20T03:17:18;6.80;83.60
37285;DHT22;23172;53.550;9.964;2022-11-20T03:22:20;6.80;84.00
37285;DHT22;23172;53.550;9.964;2022-11-20T03:27:24;6.80;83.70
37285;DHT22;23172;53.550;9.964;2022-11-20T03:32:26;6.70;84.00
37285;DHT22;23172;53.550;9.964;2022-11-20T03:37:27;6.60;84.40
37285;DHT22;23172;53.550;9.964;2022-11-20T03:42:31;6.50;84.80
37285;DHT22;23172;53.550;9.964;2022-11-20T03:47:48;6.60;84.90
37285;DHT22;23172;53.550;9.964;2022-11-20T03:52:50;6.50;84.80
37285;DHT22;23172;53.550;9.964;2022-11-20T03:57:53;6.50;85.00
37285;DHT22;23172;53.550;9.964;2022-11-20T04:02:57;6.50;85.10
37285;DHT22;23172;53.550;9.964;2022-11-20T04:08:00;6.60;84.80
37285;DHT22;23172;53.550;9.964;2022-11-20T04:13:03;6.60;84.60
37285;DHT22;23172;53.550;9.964;2022-11-20T04:18:05;6.60;84.60
37285;DHT22;23172;53.550;9.964;2022-11-20T04:23:07;6.50;84.60
37285;DHT22;23172;53.550;9.964;2022-11-20T04:28:10;6.60;84.60
37285;DHT22;23172;53.550;9.964;2022-11-20T04:33:12;6.60;84.40
37285;DHT22;23172;53.550;9.964;2022-11-20T04:38:13;6.50;84.80
37285;DHT22;23172;53.550;9.964;2022-11-20T04:43:17;6.50;84.70
37285;DHT22;23172;53.550;9.964;2022-11-20T04:48:18;6.50;84.50
37285;DHT22;23172;53.550;9.964;2022-11-20T04:53:21;6.50;84.60
37285;DHT22;23172;53.550;9.964;2022-11-20T04:58:25;6.50;84.80
37285;DHT22;23172;53.550;9.964;2022-11-20T05:03:26;6.40;84.80
37285;DHT22;23172;53.550;9.964;2022-11-20T05:08:29;6.40;84.60
37285;DHT22;23172;53.550;9.964;2022-11-20T05:13:32;6.50;84.90
37285;DHT22;23172;53.550;9.964;2022-11-20T05:18:34;6.40;84.80
37285;DHT22;23172;53.550;9.964;2022-11-20T05:23:36;6.40;84.70
37285;DHT22;23172;53.550;9.964;2022-11-20T05:28:40;6.40;84.90
37285;DHT22;23172;53.550;9.964;2022-11-20T05:33:43;6.40;84.80
37285;DHT22;23172;53.550;9.964;2022-11-20T05:38:45;6.40;84.70
37285;DHT22;23172;53.550;9.964;2022-11-20T05:43:49;6.40;84.50
37285;DHT22;23172;53.550;9.964;2022-11-20T05:48:51;6.20;85.20
37285;DHT22;23172;53.550;9.964;2022-11-20T05:53:53;6.10;85.90
37285;DHT22;23172;53.550;9.964;2022-11-20T05:58:56;6.00;86.50
37285;DHT22;23172;53.550;9.964;2022-11-20T06:03:58;6.00;86.80
37285;DHT22;23172;53.550;9.964;2022-11-20T06:09:00;5.90;87.30
37285;DHT22;23172;53.550;9.964;2022-11-20T06:14:03;6.00;87.30
37285;DHT22;23172;53.550;9.964;2022-11-20T06:19:05;5.90;87.40
37285;DHT22;23172;53.550;9.964;2022-11-20T06:24:09;5.90;87.30
37285;DHT22;23172;53.550;9.964;2022-11-20T06:29:12;5.90;87.40
37285;DHT22;23172;53.550;9.964;2022-11-20T06:34:16;5.90;87.10
37285;DHT22;23172;53.550;9.964;2022-11-20T06:39:17;5.90;87.40
37285;DHT22;23172;53.550;9.964;2022-11-20T06:44:21;5.90;87.60
37285;DHT22;23172;53.550;9.964;2022-11-20T06:49:23;5.90;87.50
37285;DHT22;23172;53.550;9.964;2022-11-20T06:54:25;5.90;87.50
37285;DHT22;23172;53.550;9.964;2022-11-20T06:59:29;5.90;87.50
37285;DHT22;23172;53.550;9.964;2022-11-20T07:04:30;6.00;87.40
37285;DHT22;23172;53.550;9.964;2022-11-20T07:09:32;6.10;87.00
37285;DHT22;23172;53.550;9.964;2022-11-20T07:14:36;6.20;86.70
37285;DHT22;23172;53.550;9.964;2022-11-20T07:19:47;6.10;86.20
37285;DHT22;23172;53.550;9.964;2022-11-20T07:24:48;6.00;86.50
37285;DHT22;23172;53.550;9.964;2022-11-20T07:29:52;6.10;86.60
37285;DHT22;23172;53.550;9.964;2022-11-20T07:34:53;6.10;86.40
37285;DHT22;23172;53.550;9.964;2022-11-20T07:39:55;6.10;86.40
37285;DHT22;23172;53.550;9.964;2022-11-20T07:44:59;6.10;86.40
37285;DHT22;23172;53.550;9.964;2022-11-20T07:50:01;6.10;86.60
37285;DHT22;23172;53.550;9.964;2022-11-20T07:55:03;6.20;86.50
37285;DHT22;23172;53.550;9.964;2022-11-20T08:00:09;6.10;86.40
37285;DHT22;23172;53.550;9.964;2022-11-20T08:05:11;6.20;86.40
37285;DHT22;23172;53.550;9.964;2022-11-20T08:10:15;6.30;86.00
37285;DHT22;23172;53.550;9.964;2022-11-20T08:15:18;6.30;85.00
37285;DHT22;23172;53.550;9.964;2022-11-20T08:20:21;6.30;84.60
37285;DHT22;23172;53.550;9.964;2022-11-20T08:25:22;6.30;84.50
37285;DHT22;23172;53.550;9.964;2022-11-20T08:30:26;6.30;84.40
37285;DHT22;23172;53.550;9.964;2022-11-20T08:35:28;6.40;84.20
37285;DHT22;23172;53.550;9.964;2022-11-20T08:40:30;6.50;83.70
37285;DHT22;23172;53.550;9.964;2022-11-20T08:45:33;6.50;83.20
37285;DHT22;23172;53.550;9.964;2022-11-20T08:50:35;5.70;85.20
37285;DHT22;23172;53.550;9.964;2022-11-20T08:55:37;5.40;86.30
37285;DHT22;23172;53.550;9.964;2022-11-20T09:00:41;5.30;86.80
37285;DHT22;23172;53.550;9.964;2022-11-20T09:05:43;5.10;87.40
37285;DHT22;23172;53.550;9.964;2022-11-20T09:10:45;5.10;87.40
37285;DHT22;23172;53.550;9.964;2022-11-20T09:15:53;5.10;87.50
37285;DHT22;23172;53.550;9.964;2022-11-20T09:20:57;5.10;87.70
37285;DHT22;23172;53.550;9.964;2022-11-20T09:26:01;5.80;87.10
37285;DHT22;23172;53.550;9.964;2022-11-20T09:31:06;6.30;85.90
37285;DHT22;23172;53.550;9.964;2022-11-20T09:36:08;6.50;85.90
37285;DHT22;23172;53.550;9.964;2022-11-20T09:41:26;6.60;85.60
37285;DHT22;23172;53.550;9.964;2022-11-20T09:46:40;6.60;85.40
37285;DHT22;23172;53.550;9.964;2022-11-20T09:51:50;6.70;85.40
37285;DHT22;23172;53.550;9.964;2022-11-20T09:56:56;6.80;85.00
37285;DHT22;23172;53.550;9.964;2022-11-20T10:02:08;6.80;84.40
37285;DHT22;23172;53.550;9.964;2022-11-20T10:07:19;6.70;84.10
37285;DHT22;23172;53.550;9.964;2022-11-20T10:12:29;6.80;84.30
37285;DHT22;23172;53.550;9.964;2022-11-20T10:17:52;6.90;84.00
37285;DHT22;23172;53.550;9.964;2022-11-20T10:23:11;7.10;83.20
37285;DHT22;23172;53.550;9.964;2022-11-20T10:28:22;7.20;82.90
37285;DHT22;23172;53.550;9.964;2022-11-20T10:33:28;7.20;82.40
37285;DHT22;23172;53.550;9.964;2022-11-20T10:38:34;7.30;82.80
37285;DHT22;23172;53.550;9.964;2022-11-20T10:43:38;7.30;82.30
37285;DHT22;23172;53.550;9.964;2022-11-20T10:48:44;7.40;81.60
37285;DHT22;23172;53.550;9.964;2022-11-20T10:53:56;7.30;81.20
37285;DHT22;23172;53.550;9.964;2022-11-20T10:59:27;7.40;81.70
37285;DHT22;23172;53.550;9.964;2022-11-20T11:04:39;7.40;81.50
37285;DHT22;23172;53.550;9.964;2022-11-20T11:09:44;7.50;80.70
37285;DHT22;23172;53.550;9.964;2022-11-20T11:14:49;7.50;80.30
37285;DHT22;23172;53.550;9.964;2022-11-20T11:20:05;7.50;80.20
37285;DHT22;23172;53.550;9.964;2022-11-20T11:25:18;7.60;80.30
37285;DHT22;23172;53.550;9.964;2022-11-20T11:30:21;6.70;82.20
37285;DHT22;23172;53.550;9.964;2022-11-20T11:35:27;6.30;82.90
37285;DHT22;23172;53.550;9.964;2022-11-20T11:40:32;6.20;84.60
37285;DHT22;23172;53.550;9.964;2022-11-20T11:45:34;6.10;83.80
37285;DHT22;23172;53.550;9.964;2022-11-20T11:50:37;5.90;84.20
37285;DHT22;23172;53.550;9.964;2022-11-20T11:55:54;5.80;84.40
37285;DHT22;23172;53.550;9.964;2022-11-20T12:01:02;5.70;84.40
37285;DHT22;23172;53.550;9.964;2022-11-20T12:06:11;6.40;82.90
37285;DHT22;23172;53.550;9.964;2022-11-20T12:11:18;6.10;84.30
37285;DHT22;23172;53.550;9.964;2022-11-20T12:16:21;5.90;84.10
37285;DHT22;23172;53.550;9.964;2022-11-20T12:21:32;5.90;84.20
37285;DHT22;23172;53.550;9.964;2022-11-20T12:26:53;5.80;83.70
37285;DHT22;23172;53.550;9.964;2022-11-20T12:32:06;5.80;83.60
37285;DHT22;23172;53.550;9.964;2022-11-20T12:37:30;5.80;83.70
37285;DHT22;23172;53.550;9.964;2022-11-20T12:42:52;5.80;83.50
37285;DHT22;23172;53.550;9.964;2022-11-20T12:48:51;5.80;83.60
37285;DHT22;23172;53.550;9.964;2022-11-20T12:54:06;5.70;84.30
37285;DHT22;23172;53.550;9.964;2022-11-20T12:59:23;5.70;84.00
37285;DHT22;23172;53.550;9.964;2022-11-20T13:05:02;5.70;84.10
37285;DHT22;23172;53.550;9.964;2022-11-20T13:10:16;5.60;84.40
37285;DHT22;23172;53.550;9.964;2022-11-20T13:15:31;5.70;84.60
37285;DHT22;23172;53.550;9.964;2022-11-20T13:20:36;5.60;84.80
37285;DHT22;23172;53.550;9.964;2022-11-20T13:25:44;5.70;84.70
37285;DHT22;23172;53.550;9.964;2022-11-20T13:30:50;5.70;84.60
37285;DHT22;23172;53.550;9.964;2022-11-20T13:35:56;5.70;84.10
37285;DHT22;23172;53.550;9.964;2022-11-20T13:41:01;5.70;83.60
37285;DHT22;23172;53.550;9.964;2022-11-20T13:46:23;5.70;83.70
37285;DHT22;23172;53.550;9.964;2022-11-20T13:51:42;5.70;83.50
37285;DHT22;23172;53.550;9.964;2022-11-20T13:56:59;5.80;83.20
37285;DHT22;23172;53.550;9.964;2022-11-20T14:02:02;5.80;83.10
37285;DHT22;23172;53.550;9.964;2022-11-20T14:07:05;5.80;83.60
37285;DHT22;23172;53.550;9.964;2022-11-20T14:12:16;5.80;82.90
37285;DHT22;23172;53.550;9.964;2022-11-20T14:17:20;5.80;82.90
37285;DHT22;23172;53.550;9.964;2022-11-20T14:22:24;5.70;82.80
37285;DHT22;23172;53.550;9.964;2022-11-20T14:27:27;5.70;83.10
37285;DHT22;23172;53.550;9.964;2022-11-20T14:32:30;5.70;83.20
37285;DHT22;23172;53.550;9.964;2022-11-20T14:37:36;5.70;83.30
37285;DHT22;23172;53.550;9.964;2022-11-20T14:42:43;5.70;83.40
37285;DHT22;23172;53.550;9.964;2022-11-20T14:47:46;5.70;83.50
37285;DHT22;23172;53.550;9.964;2022-11-20T14:52:53;5.60;83.30
37285;DHT22;23172;53.550;9.964;2022-11-20T14:57:57;5.70;83.50
37285;DHT22;23172;53.550;9.964;2022-11-20T15:02:59;5.60;83.30
37285;DHT22;23172;53.550;9.964;2022-11-20T15:08:06;5.50;83.50
37285;DHT22;23172;53.550;9.964;2022-11-20T15:13:13;5.50;83.50
37285;DHT22;23172;53.550;9.964;2022-11-20T15:18:17;5.50;83.80
37285;DHT22;23172;53.550;9.964;2022-11-20T15:23:20;5.40;84.00
37285;DHT22;23172;53.550;9.964;2022-11-20T15:28:27;5.40;84.30
37285;DHT22;23172;53.550;9.964;2022-11-20T15:33:31;5.40;85.30
37285;DHT22;23172;53.550;9.964;2022-11-20T15:38:33;5.30;85.00
37285;DHT22;23172;53.550;9.964;2022-11-20T15:43:36;5.30;85.10
37285;DHT22;23172;53.550;9.964;2022-11-20T15:48:41;5.20;85.20
37285;DHT22;23172;53.550;9.964;2022-11-20T15:53:43;5.20;85.40
37285;DHT22;23172;53.550;9.964;2022-11-20T15:58:47;5.20;86.40
37285;DHT22;23172;53.550;9.964;2022-11-20T16:03:49;5.20;85.60
37285;DHT22;23172;53.550;9.964;2022-11-20T16:08:51;5.30;85.80
37285;DHT22;23172;53.550;9.964;2022-11-20T16:13:54;5.20;85.90
37285;DHT22;23172;53.550;9.964;2022-11-20T16:19:14;5.20;86.00
37285;DHT22;23172;53.550;9.964;2022-11-20T16:24:16;5.20;86.10
37285;DHT22;23172;53.550;9.964;2022-11-20T16:29:19;5.20;86.10
37285;DHT22;23172;53.550;9.964;2022-11-20T16:34:21;5.20;85.50
37285;DHT22;23172;53.550;9.964;2022-11-20T16:39:24;5.20;85.10
37285;DHT22;23172;53.550;9.964;2022-11-20T16:44:28;5.30;85.60
37285;DHT22;23172;53.550;9.964;2022-11-20T16:49:30;5.30;84.70
37285;DHT22;23172;53.550;9.964;2022-11-20T16:54:32;5.30;84.60
37285;DHT22;23172;53.550;9.964;2022-11-20T16:59:36;5.30;84.70
37285;DHT22;23172;53.550;9.964;2022-11-20T17:04:38;5.30;85.00
37285;DHT22;23172;53.550;9.964;2022-11-20T17:09:40;5.30;84.80
37285;DHT22;23172;53.550;9.964;2022-11-20T17:14:44;5.30;84.50
37285;DHT22;23172;53.550;9.964;2022-11-20T17:19:46;5.30;84.20
37285;DHT22;23172;53.550;9.964;2022-11-20T17:24:48;5.30;84.90
37285;DHT22;23172;53.550;9.964;2022-11-20T17:29:51;5.30;84.00
37285;DHT22;23172;53.550;9.964;2022-11-20T17:34:54;5.20;83.90
37285;DHT22;23172;53.550;9.964;2022-11-20T17:39:58;5.20;83.80
37285;DHT22;23172;53.550;9.964;2022-11-20T17:45:02;5.30;83.80
37285;DHT22;23172;53.550;9.964;2022-11-20T17:50:04;5.20;83.90
37285;DHT22;23172;53.550;9.964;2022-11-20T17:55:07;5.20;84.10
37285;DHT22;23172;53.550;9.964;2022-11-20T18:00:11;5.10;84.40
37285;DHT22;23172;53.550;9.964;2022-11-20T18:05:16;5.10;84.70
37285;DHT22;23172;53.550;9.964;2022-11-20T18:10:18;5.10;84.80
37285;DHT22;23172;53.550;9.964;2022-11-20T18:15:21;5.10;84.90
37285;DHT22;23172;53.550;9.964;2022-11-20T18:20:23;5.00;85.90
37285;DHT22;23172;53.550;9.964;2022-11-20T18:25:25;5.00;85.90
37285;DHT22;23172;53.550;9.964;2022-11-20T18:30:28;4.90;86.70
37285;DHT22;23172;53.550;9.964;2022-11-20T18:35:30;4.80;87.30
37285;DHT22;23172;53.550;9.964;2022-11-20T18:40:33;4.50;88.40
37285;DHT22;23172;53.550;9.964;2022-11-20T18:45:37;4.40;89.20
37285;DHT22;23172;53.550;9.964;2022-11-20T18:50:39;4.30;89.80
37285;DHT22;23172;53.550;9.964;2022-11-20T18:55:41;4.20;90.10
37285;DHT22;23172;53.550;9.964;2022-11-20T19:00:44;4.10;90.20
37285;DHT22;23172;53.550;9.964;2022-11-20T19:05:46;4.20;90.30
37285;DHT22;23172;53.550;9.964;2022-11-20T23:13:25;4.10;90.40
37285;DHT22;23172;53.550;9.964;2022-11-20T23:18:29;4.30;91.60
37285;DHT22;23172;53.550;9.964;2022-11-20T23:23:31;3.90;92.20
37285;DHT22;23172;53.550;9.964;2022-11-20T23:28:33;3.60;92.50
37285;DHT22;23172;53.550;9.964;2022-11-20T23:38:41;3.50;93.10
37285;DHT22;23172;53.550;9.964;2022-11-20T23:43:43;4.40;91.50
37285;DHT22;23172;53.550;9.964;2022-11-20T23:48:46;3.90;92.30
37285;DHT22;23172;53.550;9.964;2022-11-20T23:53:48;3.60;93.00
37285;DHT22;23172;53.550;9.964;2022-11-20T23:58:50;4.10;92.20
